Time;durP1;ratioP1;P1;durP2;ratioP2;P2;SDS_P1;SDS_P2;PMS_P1;PMS_P2;Temp;Humidity;BMP_temperature;BMP_pressure;BME280_temperature;BME280_humidity;BME280_pressure;Samples;Min_cycle;Max_cycle;Signal;HPM_P1;HPM_P2
2021/11/26 00:01:33;;;;;;;8.55;4.40;;;4.20;99.90;;;3.98;96.56;101158.06;4120416;28;20085;-76
2021/11/26 00:03:34;;;;;;;10.95;4.75;;;4.30;99.90;;;3.99;96.39;101157.13;4120224;28;20030;-76
2021/11/26 00:05:35;;;;;;;7.35;4.70;;;4.30;99.90;;;3.98;95.76;101152.84;4120459;28;20042;-75
2021/11/26 00:07:36;;;;;;;9.35;5.18;;;4.30;99.90;;;3.87;96.72;101142.31;4120606;28;20070;-76
2021/11/26 00:09:37;;;;;;;7.93;4.28;;;4.30;99.90;;;3.90;97.58;101153.38;4120362;28;20030;-76
2021/11/26 00:11:38;;;;;;;7.07;4.07;;;4.30;99.90;;;3.96;96.30;101140.84;4120443;28;20035;-76
2021/11/26 00:13:43;;;;;;;9.88;5.38;;;4.30;99.90;;;3.97;95.86;101139.91;4121120;28;20047;-76
2021/11/26 00:15:44;;;;;;;7.65;4.80;;;4.30;99.90;;;3.95;96.50;101134.78;4136132;28;20058;-75
2021/11/26 00:17:49;;;;;;;10.10;4.40;;;4.40;99.90;;;3.71;96.99;101133.81;4136371;28;20501;-76
2021/11/26 00:19:50;;;;;;;6.75;4.65;;;4.30;99.90;;;3.73;98.10;101127.56;4121722;28;20054;-76
2021/11/26 00:21:52;;;;;;;7.57;4.10;;;4.30;99.90;;;4.00;96.52;101121.44;4100289;29;20027;-76
2021/11/26 00:23:53;;;;;;;9.57;4.25;;;4.30;99.90;;;3.76;96.80;101118.72;4104499;29;20031;-75
2021/11/26 00:25:54;;;;;;;8.50;4.63;;;4.30;99.90;;;3.81;96.90;101111.41;4121453;28;20038;-76
2021/11/26 00:27:55;;;;;;;8.27;4.38;;;4.30;99.90;;;3.83;98.19;101114.72;4104036;29;20110;-76
2021/11/26 00:29:56;;;;;;;9.07;4.35;;;4.30;99.90;;;3.87;97.08;101103.16;4088294;29;20583;-76
2021/11/26 00:31:57;;;;;;;11.63;5.93;;;4.40;99.90;;;3.85;97.97;101103.25;4121458;28;20034;-76
2021/11/26 00:33:58;;;;;;;11.98;4.70;;;4.30;99.90;;;3.91;97.88;101107.25;4103036;28;20553;-75
2021/11/26 00:35:59;;;;;;;10.43;4.75;;;4.30;99.90;;;4.05;97.45;101111.50;4088277;29;20043;-75
2021/11/26 00:38:00;;;;;;;8.18;4.55;;;4.40;99.90;;;4.01;97.11;101100.44;4104160;29;20043;-76
2021/11/26 00:40:01;;;;;;;7.47;4.55;;;4.40;99.90;;;4.05;96.51;101099.28;4104106;29;20043;-76
2021/11/26 00:42:02;;;;;;;8.02;4.85;;;4.40;99.90;;;3.96;96.78;101084.25;4104258;29;20554;-76
2021/11/26 00:44:04;;;;;;;9.50;4.93;;;4.40;99.90;;;3.90;97.56;101090.75;4103704;29;20038;-76
2021/11/26 00:46:05;;;;;;;7.18;4.80;;;4.40;99.90;;;4.05;96.50;101103.69;4103854;29;20031;-76
2021/11/26 00:48:06;;;;;;;6.85;4.63;;;4.40;99.90;;;4.01;96.17;101094.38;4121142;28;20430;-76
2021/11/26 00:50:09;;;;;;;11.63;4.93;;;4.40;99.90;;;4.00;96.25;101080.50;4121190;28;20061;-76
2021/11/26 00:52:10;;;;;;;9.40;5.05;;;4.40;99.90;;;3.88;96.66;101065.69;4088005;29;20036;-76
2021/11/26 00:54:10;;;;;;;10.13;6.53;;;4.40;99.90;;;3.91;96.48;101065.50;4103674;29;20039;-76
2021/11/26 00:56:12;;;;;;;9.73;4.90;;;4.40;99.90;;;3.82;97.33;101056.50;4121133;28;20479;-76
2021/11/26 00:58:13;;;;;;;8.88;4.55;;;4.30;99.90;;;3.96;95.68;101065.16;4103533;29;20029;-76
2021/11/26 01:00:18;;;;;;;9.85;5.20;;;4.40;99.90;;;3.86;96.94;101064.94;4103635;29;20035;-76
2021/11/26 01:02:19;;;;;;;10.52;6.80;;;4.30;99.90;;;3.75;96.30;101059.63;4103724;28;20020;-76
2021/11/26 01:04:20;;;;;;;10.45;5.95;;;4.30;99.90;;;3.74;96.55;101063.19;4120841;28;20045;-76
2021/11/26 01:06:21;;;;;;;6.35;4.85;;;4.30;99.90;;;3.69;97.64;101070.50;4120883;28;20022;-76
2021/11/26 01:08:22;;;;;;;10.98;5.35;;;4.20;99.90;;;3.70;97.82;101059.13;4103543;29;20118;-76
2021/11/26 01:10:25;;;;;;;9.85;5.38;;;4.20;99.90;;;3.81;97.17;101069.66;4103346;29;20024;-76
2021/11/26 01:12:26;;;;;;;8.50;4.90;;;4.20;99.90;;;3.82;97.42;101066.13;4120562;28;20035;-76
2021/11/26 01:14:27;;;;;;;8.20;5.93;;;4.20;99.90;;;3.89;97.01;101054.31;4115924;28;20053;-76
2021/11/26 01:16:28;;;;;;;7.25;4.78;;;4.20;99.90;;;3.81;96.62;101046.19;4119463;28;20039;-76
2021/11/26 01:18:29;;;;;;;13.15;5.53;;;4.30;99.90;;;3.92;95.87;101059.31;4119549;28;20022;-76
2021/11/26 01:20:33;;;;;;;9.07;5.38;;;4.30;99.90;;;3.89;95.99;101049.09;4120646;28;20514;-76
2021/11/26 01:22:34;;;;;;;6.03;4.35;;;4.30;99.90;;;3.75;97.08;101041.38;4119350;28;20061;-76
2021/11/26 01:24:35;;;;;;;7.80;5.15;;;4.30;99.90;;;3.74;97.27;101047.53;4119228;28;20480;-76
2021/11/26 01:26:36;;;;;;;8.93;4.07;;;4.20;99.90;;;3.73;96.80;101046.69;4119195;28;20102;-76
2021/11/26 01:28:37;;;;;;;8.00;4.43;;;4.20;99.90;;;3.69;97.34;101052.22;4119249;28;20031;-76
2021/11/26 01:30:43;;;;;;;10.73;4.93;;;4.20;99.90;;;3.77;96.75;101052.53;4120536;28;20089;-76
2021/11/26 01:32:44;;;;;;;11.43;5.32;;;4.20;99.90;;;3.77;96.67;101049.94;4120486;28;20123;-76
2021/11/26 01:34:45;;;;;;;10.23;4.20;;;4.20;99.90;;;3.74;96.49;101053.59;4120299;28;20085;-76
2021/11/26 01:36:49;;;;;;;7.13;4.35;;;4.20;99.90;;;3.92;96.07;101054.09;4120509;28;20035;-76
2021/11/26 01:38:50;;;;;;;6.28;3.75;;;4.20;99.90;;;3.96;95.32;101057.31;4119226;28;20077;-76
2021/11/26 01:40:51;;;;;;;6.55;3.92;;;4.30;99.90;;;3.77;96.43;101063.81;4119164;28;20039;-76
2021/11/26 01:42:55;;;;;;;7.97;4.60;;;4.20;99.90;;;3.89;95.85;101056.91;4119038;28;20023;-76
2021/11/26 01:44:56;;;;;;;6.17;4.00;;;4.10;99.90;;;3.75;96.17;101044.81;4119983;28;20105;-76
2021/11/26 01:46:57;;;;;;;8.40;4.35;;;4.20;99.90;;;3.75;95.93;101054.41;4119114;28;20035;-76
2021/11/26 01:48:57;;;;;;;9.95;4.32;;;4.30;99.90;;;3.77;96.16;101047.31;4135095;28;20026;-76
2021/11/26 01:50:58;;;;;;;5.78;4.30;;;4.20;99.90;;;3.61;96.16;101039.72;4119034;28;20094;-76
2021/11/26 01:52:59;;;;;;;8.20;4.63;;;4.20;99.90;;;3.67;97.65;101035.84;4120345;28;20030;-76
2021/11/26 01:55:01;;;;;;;6.65;4.60;;;4.20;99.90;;;3.61;97.61;101037.13;4120243;28;20038;-76
2021/11/26 01:57:02;;;;;;;7.95;4.78;;;4.20;99.90;;;3.66;97.58;101034.19;4118590;28;20047;-76
2021/11/26 01:59:04;;;;;;;9.05;4.45;;;4.10;99.90;;;3.63;97.29;101029.16;4118705;28;20034;-76
2021/11/26 02:01:05;;;;;;;17.05;8.32;;;4.20;99.90;;;3.64;97.66;101030.84;4120098;28;20029;-76
2021/11/26 02:03:06;;;;;;;11.95;7.53;;;4.10;99.90;;;3.65;97.14;101032.50;4120308;28;20026;-76
2021/11/26 02:05:08;;;;;;;17.05;8.40;;;4.10;99.90;;;3.60;97.92;101027.59;4120024;28;20090;-76
2021/11/26 02:07:09;;;;;;;11.73;7.75;;;4.10;99.90;;;3.59;97.84;101032.91;4119859;28;20414;-76
2021/11/26 02:09:10;;;;;;;13.07;7.10;;;4.10;99.90;;;3.52;97.93;101034.28;4120055;28;20031;-76
2021/11/26 02:11:11;;;;;;;13.18;7.07;;;4.10;99.90;;;3.61;97.33;101025.84;4118822;28;20031;-76
2021/11/26 02:13:12;;;;;;;9.75;6.15;;;4.00;99.90;;;3.61;97.29;101025.84;4118184;28;20130;-76
2021/11/26 02:15:23;;;;;;;12.65;6.43;;;4.10;99.90;;;3.60;97.44;101014.56;4131537;28;20114;-76
2021/11/26 02:17:25;;;;;;;11.77;6.53;;;4.10;99.90;;;3.61;97.95;101020.63;4118717;28;20027;-76
2021/11/26 02:19:26;;;;;;;10.70;5.95;;;4.30;99.90;;;3.58;97.28;101016.47;4118594;28;20035;-76
2021/11/26 02:21:27;;;;;;;10.27;5.90;;;4.10;99.90;;;3.57;97.44;101019.16;4118512;28;20026;-76
2021/11/26 02:23:28;;;;;;;9.82;6.00;;;4.10;99.90;;;3.54;96.39;101004.56;4119881;28;20545;-76
2021/11/26 02:25:29;;;;;;;11.45;5.40;;;4.00;99.90;;;3.50;96.87;101017.88;4119896;28;20109;-76
2021/11/26 02:27:30;;;;;;;9.45;4.50;;;4.00;99.90;;;3.58;96.03;101016.47;4102325;29;20031;-76
2021/11/26 02:29:31;;;;;;;8.73;4.88;;;4.10;99.90;;;3.51;97.09;101007.38;4119755;28;20034;-76
2021/11/26 02:31:32;;;;;;;8.63;5.18;;;4.00;99.90;;;3.47;97.27;101008.50;4119716;28;20066;-76
2021/11/26 02:33:33;;;;;;;8.25;5.43;;;4.10;99.90;;;3.60;96.68;101019.78;4118688;28;20035;-76
2021/11/26 02:35:36;;;;;;;10.35;5.10;;;4.00;99.90;;;3.49;96.84;101003.19;4134686;28;20053;-76
2021/11/26 02:37:40;;;;;;;9.20;4.22;;;4.10;99.90;;;3.55;96.67;101008.84;4118545;28;20077;-76
2021/11/26 02:39:41;;;;;;;9.55;4.93;;;4.00;99.90;;;3.60;96.79;100998.91;4119633;28;20035;-76
2021/11/26 02:41:44;;;;;;;12.05;5.57;;;4.00;99.90;;;3.75;96.12;101004.84;4119710;28;20114;-75
2021/11/26 02:43:46;;;;;;;9.73;4.78;;;4.20;99.90;;;3.65;96.63;100991.59;4119638;28;20027;-76
2021/11/26 02:45:47;;;;;;;8.40;4.28;;;4.10;99.90;;;3.66;96.79;100988.06;4119522;28;20030;-75
2021/11/26 02:47:48;;;;;;;7.20;4.13;;;4.20;99.90;;;3.61;97.49;100994.53;4118442;28;20059;-76
2021/11/26 02:49:49;;;;;;;5.75;3.78;;;4.20;99.90;;;3.67;97.04;100983.69;4119776;28;20023;-76
2021/11/26 02:51:50;;;;;;;9.23;5.18;;;4.10;99.90;;;3.71;95.73;100974.69;4118324;28;20460;-76
2021/11/26 02:53:51;;;;;;;8.20;4.03;;;4.20;99.90;;;3.68;95.76;100974.91;4119706;28;20062;-76
2021/11/26 02:55:52;;;;;;;7.90;4.20;;;4.10;99.90;;;3.77;95.41;100966.44;4118290;28;20042;-76
2021/11/26 02:57:53;;;;;;;8.98;4.47;;;4.20;99.90;;;3.84;94.74;100955.47;4137351;28;20034;-76
2021/11/26 02:59:55;;;;;;;10.48;4.15;;;4.20;99.90;;;3.68;96.57;100954.88;4121626;28;20105;-76
2021/11/26 03:01:56;;;;;;;6.35;3.60;;;4.20;99.90;;;3.76;96.12;100955.16;4105482;29;20027;-76
2021/11/26 03:03:57;;;;;;;7.50;4.65;;;4.20;99.90;;;3.63;96.23;100940.47;4122602;28;20397;-75
2021/11/26 03:06:04;;;;;;;9.07;4.65;;;4.20;99.90;;;3.63;96.48;100940.47;4122868;28;20031;-76
2021/11/26 03:08:06;;;;;;;8.82;4.20;;;4.20;99.90;;;3.68;96.41;100927.94;4121406;28;20027;-76
2021/11/26 03:10:09;;;;;;;8.55;4.18;;;4.20;99.90;;;3.80;95.10;100925.31;4121465;28;20050;-76
2021/11/26 03:12:10;;;;;;;5.90;3.80;;;4.20;99.90;;;3.68;95.62;100912.28;4121393;28;20031;-76
2021/11/26 03:14:11;;;;;;;10.23;4.35;;;4.30;99.90;;;3.77;95.85;100915.09;4121293;28;20050;-76
2021/11/26 03:16:12;;;;;;;5.90;3.78;;;4.20;99.90;;;3.82;94.89;100907.75;4137469;28;20034;-76
2021/11/26 03:18:17;;;;;;;7.43;3.60;;;4.30;99.90;;;3.69;95.68;100914.81;4122497;28;20479;-76
2021/11/26 03:20:19;;;;;;;8.13;3.80;;;4.20;99.90;;;3.71;96.30;100922.50;4120980;28;20034;-75
2021/11/26 03:22:20;;;;;;;6.57;4.03;;;4.80;99.90;;;3.60;96.38;100906.78;4121186;28;20050;-76
2021/11/26 03:24:21;;;;;;;9.32;3.97;;;4.20;99.90;;;3.67;96.75;100908.88;4137379;28;20584;-76
2021/11/26 03:26:22;;;;;;;13.98;6.38;;;4.20;99.90;;;3.64;96.05;100898.66;4122390;28;20030;-76
2021/11/26 03:28:23;;;;;;;15.52;9.05;;;4.20;99.90;;;3.74;95.29;100886.63;4122053;28;20026;-75
2021/11/26 03:30:25;;;;;;;15.93;9.77;;;4.20;99.90;;;3.75;95.69;100893.50;4122438;28;20110;-75
2021/11/26 03:32:26;;;;;;;14.80;8.65;;;4.20;99.90;;;3.68;96.64;100881.00;4121024;28;20058;-76
2021/11/26 03:34:28;;;;;;;13.32;7.13;;;4.20;99.90;;;3.68;96.24;100875.78;4122286;28;20556;-75
2021/11/26 03:36:29;;;;;;;9.40;6.32;;;4.10;99.90;;;3.72;95.84;100865.03;4104920;29;20066;-76
2021/11/26 03:38:30;;;;;;;9.35;5.75;;;4.20;99.90;;;3.65;96.77;100865.56;4122368;28;20031;-76
2021/11/26 03:40:31;;;;;;;6.38;4.22;;;4.10;99.90;;;3.57;96.69;100857.44;4122184;28;20513;-76
2021/11/26 03:42:32;;;;;;;7.43;4.45;;;4.10;99.90;;;3.55;97.58;100854.13;4120838;28;20581;-76
2021/11/26 03:44:33;;;;;;;7.13;5.07;;;4.10;99.90;;;3.56;97.16;100855.78;4122216;28;20031;-76
2021/11/26 03:46:34;;;;;;;6.43;4.45;;;4.10;99.90;;;3.59;97.37;100859.00;4121088;28;20058;-76
2021/11/26 03:48:35;;;;;;;8.02;4.57;;;4.10;99.90;;;3.61;97.25;100858.91;4137109;28;20085;-76
2021/11/26 03:50:36;;;;;;;8.27;5.03;;;4.10;99.90;;;3.57;97.29;100847.03;4120827;28;20117;-76
2021/11/26 03:52:38;;;;;;;8.00;4.45;;;4.10;99.90;;;3.56;97.52;100855.78;4121967;28;20027;-76
2021/11/26 03:54:41;;;;;;;7.13;4.35;;;4.10;99.90;;;3.56;96.85;100855.78;4122163;28;20504;-76
2021/11/26 03:56:42;;;;;;;8.15;5.15;;;4.10;99.90;;;3.60;97.14;100841.59;4120914;28;20109;-76
2021/11/26 03:58:42;;;;;;;11.85;5.30;;;4.00;99.90;;;3.48;97.40;100826.81;4121826;28;20031;-76
2021/11/26 04:00:44;;;;;;;9.65;6.38;;;4.00;99.90;;;3.55;96.81;100835.88;4121993;28;20446;-76
2021/11/26 04:02:45;;;;;;;12.30;6.68;;;4.00;99.90;;;3.60;96.65;100842.44;4120789;28;20042;-76
2021/11/26 04:04:46;;;;;;;13.77;6.65;;;4.00;99.90;;;3.55;96.58;100830.66;4120795;28;20583;-76
2021/11/26 04:06:47;;;;;;;10.40;6.75;;;4.00;99.90;;;3.45;97.60;100821.81;4121820;28;20027;-76
2021/11/26 04:08:48;;;;;;;11.65;6.18;;;4.00;99.90;;;3.48;97.74;100817.22;4121427;28;20037;-76
2021/11/26 04:10:49;;;;;;;7.72;5.38;;;4.00;99.90;;;3.49;97.20;100816.28;4121873;28;20435;-76
2021/11/26 04:12:51;;;;;;;7.13;5.18;;;4.00;99.90;;;3.41;97.31;100828.16;4121582;28;20039;-76
2021/11/26 04:14:54;;;;;;;8.95;4.93;;;3.90;99.90;;;3.36;97.86;100838.94;4119458;28;20054;-76
2021/11/26 04:16:55;;;;;;;10.70;4.70;;;3.90;99.90;;;3.19;97.68;100823.66;4120291;28;20094;-76
2021/11/26 04:18:55;;;;;;;7.63;4.72;;;3.90;99.90;;;3.26;98.62;100838.75;4104399;29;20028;-76
2021/11/26 04:20:56;;;;;;;9.50;5.15;;;3.80;99.90;;;3.29;98.32;100846.34;4121679;28;20031;-76
2021/11/26 04:22:58;;;;;;;8.55;4.53;;;3.90;99.90;;;3.27;98.30;100835.22;4104288;29;20039;-76
2021/11/26 04:24:59;;;;;;;8.98;4.18;;;3.80;99.90;;;3.21;98.51;100827.81;4104370;28;20526;-76
2021/11/26 04:27:01;;;;;;;6.13;4.32;;;3.80;99.90;;;3.25;98.83;100837.09;4104286;29;20075;-76
2021/11/26 04:29:02;;;;;;;7.40;4.60;;;4.00;99.90;;;3.29;98.22;100829.88;4088430;29;20023;-76
2021/11/26 04:31:04;;;;;;;7.68;4.55;;;3.80;99.90;;;3.35;97.53;100827.66;4121490;28;20031;-76
2021/11/26 04:33:05;;;;;;;8.70;5.30;;;3.80;99.90;;;3.44;95.84;100836.63;4104151;29;20504;-76
2021/11/26 04:35:08;;;;;;;6.07;4.05;;;3.80;99.90;;;3.50;97.11;100819.69;4121513;28;20082;-76
2021/11/26 04:37:09;;;;;;;10.85;4.28;;;4.00;99.90;;;3.40;97.06;100821.31;4104260;28;20066;-76
2021/11/26 04:39:10;;;;;;;7.60;4.03;;;3.90;99.90;;;3.42;97.88;100815.03;4104081;29;20084;-75
2021/11/26 04:41:11;;;;;;;7.50;3.88;;;3.90;99.90;;;3.43;97.40;100808.91;4104033;29;20106;-76
2021/11/26 04:43:13;;;;;;;9.18;4.47;;;4.10;99.90;;;3.42;97.54;100814.22;4103976;29;20054;-76
2021/11/26 04:45:16;;;;;;;4.07;2.95;;;3.90;99.90;;;3.45;97.25;100807.00;4104167;28;20050;-76
2021/11/26 04:47:17;;;;;;;6.20;4.03;;;3.90;99.90;;;3.50;96.64;100809.25;4121185;28;20027;-76
2021/11/26 04:49:18;;;;;;;4.82;3.47;;;4.00;99.90;;;3.54;96.59;100788.09;4103902;29;20114;-75
2021/11/26 04:51:19;;;;;;;8.27;3.30;;;4.00;99.90;;;3.61;96.53;100801.53;4121340;28;20553;-75
2021/11/26 04:53:20;;;;;;;6.55;3.25;;;4.00;99.90;;;3.57;96.30;100794.84;4103952;29;20107;-76
2021/11/26 04:55:21;;;;;;;5.95;3.58;;;4.10;99.90;;;3.60;96.42;100786.81;4103970;29;20028;-75
2021/11/26 04:57:23;;;;;;;7.70;3.53;;;4.10;99.90;;;3.53;96.26;100778.59;4120632;28;20034;-76
2021/11/26 04:59:24;;;;;;;10.27;3.70;;;4.10;99.90;;;3.55;96.15;100781.09;4103693;29;20098;-75
2021/11/26 05:01:26;;;;;;;6.57;3.38;;;4.10;99.90;;;3.61;96.44;100773.69;4103897;29;20015;-76
2021/11/26 05:03:27;;;;;;;6.82;3.47;;;4.10;99.90;;;3.59;96.31;100766.88;4103723;29;20086;-75
2021/11/26 05:05:28;;;;;;;8.93;3.92;;;4.10;99.90;;;3.70;96.05;100764.34;4120778;28;20027;-76
2021/11/26 05:07:29;;;;;;;10.07;4.15;;;4.20;99.90;;;3.79;95.21;100774.13;4103869;29;20031;-75
2021/11/26 05:09:30;;;;;;;7.43;3.50;;;4.30;99.90;;;3.70;96.17;100761.75;4120977;28;20533;-75
2021/11/26 05:11:31;;;;;;;4.13;3.10;;;4.30;99.90;;;3.78;95.76;100770.66;4087751;29;20039;-75
2021/11/26 05:13:33;;;;;;;7.63;3.50;;;4.30;99.90;;;3.82;95.61;100760.84;4120271;28;20137;-75
2021/11/26 05:15:34;;;;;;;5.05;3.30;;;4.40;99.90;;;3.78;95.85;100764.63;4120935;28;20031;-76
2021/11/26 05:17:35;;;;;;;8.07;3.88;;;4.50;99.90;;;3.79;95.53;100761.06;4087655;29;20086;-75
2021/11/26 05:19:36;;;;;;;6.88;3.55;;;4.40;99.90;;;4.07;94.18;100758.06;4120076;28;20038;-75
2021/11/26 05:21:37;;;;;;;6.18;3.40;;;4.50;99.90;;;4.08;93.78;100770.19;4103307;29;20092;-75
2021/11/26 05:23:38;;;;;;;8.98;4.15;;;4.60;99.90;;;4.00;94.80;100769.09;4120839;28;20078;-76
2021/11/26 05:25:39;;;;;;;8.40;3.85;;;4.60;99.90;;;3.95;94.98;100758.97;4103626;29;20111;-76
2021/11/26 05:27:40;;;;;;;8.63;3.38;;;4.60;99.90;;;3.99;95.43;100754.38;4120515;28;20026;-76
2021/11/26 05:29:41;;;;;;;5.85;3.25;;;4.70;99.90;;;4.19;94.60;100757.16;4120571;28;20062;-76
2021/11/26 05:31:42;;;;;;;7.65;3.30;;;5.60;99.90;;;4.20;93.90;100751.00;4103501;29;20042;-75
2021/11/26 05:33:43;;;;;;;8.43;3.33;;;4.70;99.90;;;4.28;92.80;100750.41;4120795;28;20039;-76
2021/11/26 05:35:44;;;;;;;8.63;4.30;;;4.80;99.90;;;4.26;93.66;100747.94;4103355;29;20404;-76
2021/11/26 05:37:46;;;;;;;5.53;3.92;;;4.80;99.90;;;4.24;93.42;100749.81;4087246;29;20052;-76
2021/11/26 05:39:47;;;;;;;10.55;3.35;;;4.80;99.90;;;4.16;94.26;100727.84;4120482;28;20080;-76
2021/11/26 05:41:48;;;;;;;6.95;4.03;;;4.90;99.90;;;4.15;93.75;100734.81;4120242;28;20074;-76
2021/11/26 05:43:49;;;;;;;6.43;3.42;;;4.80;99.90;;;4.22;94.45;100743.03;4120405;28;20398;-76
2021/11/26 05:45:50;;;;;;;7.25;3.47;;;4.90;99.90;;;4.18;94.83;100733.78;4103144;29;20028;-76
2021/11/26 05:47:51;;;;;;;5.20;3.17;;;4.90;99.90;;;4.36;93.83;100735.81;4103277;29;20039;-76
2021/11/26 05:49:52;;;;;;;5.68;3.35;;;4.90;99.90;;;4.36;93.21;100725.38;4120347;28;20065;-76
2021/11/26 05:51:53;;;;;;;7.35;3.55;;;4.90;99.90;;;4.34;93.36;100722.06;4103131;29;20115;-76
2021/11/26 05:53:53;;;;;;;4.47;3.92;;;5.00;99.90;;;4.36;93.52;100708.91;4087091;29;20023;-76
2021/11/26 05:55:59;;;;;;;8.40;3.22;;;4.90;99.90;;;4.46;92.20;100709.84;4120211;28;20046;-76
2021/11/26 05:58:01;;;;;;;9.05;4.05;;;5.00;99.90;;;4.42;93.15;100721.50;4119877;28;20026;-76
2021/11/26 06:00:05;;;;;;;9.15;4.03;;;5.00;99.90;;;4.43;92.88;100710.91;4102828;29;20031;-76
2021/11/26 06:02:06;;;;;;;4.90;3.30;;;5.20;99.90;;;4.58;92.80;100721.97;4102986;28;20076;-76
2021/11/26 06:04:07;;;;;;;7.90;4.93;;;5.10;99.90;;;4.60;92.42;100712.22;4120187;28;20031;-76
2021/11/26 06:06:08;;;;;;;5.63;3.10;;;5.20;99.90;;;4.62;91.33;100710.34;4103133;29;20043;-76
2021/11/26 06:08:09;;;;;;;5.38;3.63;;;5.20;99.90;;;4.65;91.27;100706.66;4118753;28;20513;-76
2021/11/26 06:10:12;;;;;;;8.85;3.65;;;5.00;99.90;;;4.63;91.46;100711.97;4102875;29;20042;-76
2021/11/26 06:12:13;;;;;;;7.70;3.67;;;5.20;99.90;;;4.52;92.33;100719.81;4102793;28;20035;-76
2021/11/26 06:14:15;;;;;;;4.35;3.38;;;5.20;99.90;;;4.48;92.58;100711.38;4111464;28;20050;-76
2021/11/26 06:16:16;;;;;;;4.55;3.22;;;5.20;99.90;;;4.48;93.63;100695.72;4118544;28;20035;-76
2021/11/26 06:18:17;;;;;;;7.57;2.95;;;5.20;99.90;;;4.58;93.40;100697.63;4118690;28;20030;-76
2021/11/26 06:20:19;;;;;;;8.27;3.03;;;5.20;99.90;;;4.71;92.12;100701.78;4119859;28;20405;-76
2021/11/26 06:22:20;;;;;;;6.32;3.38;;;5.20;99.90;;;4.65;92.51;100701.44;4102584;29;20074;-76
2021/11/26 06:24:21;;;;;;;7.13;3.60;;;5.30;99.90;;;4.78;91.82;100700.34;4119968;28;20494;-76
2021/11/26 06:26:22;;;;;;;7.32;3.60;;;5.30;99.90;;;4.73;91.27;100694.66;4102485;29;20110;-76
2021/11/26 06:28:23;;;;;;;7.35;3.53;;;5.30;99.90;;;4.76;91.44;100688.34;4118559;28;20411;-76
2021/11/26 06:30:25;;;;;;;8.52;3.58;;;5.30;99.90;;;4.77;91.00;100695.25;4119849;28;20023;-77
2021/11/26 06:32:26;;;;;;;6.95;3.65;;;5.30;99.90;;;4.73;91.88;100681.59;4119749;28;20126;-76
2021/11/26 06:34:26;;;;;;;8.25;3.65;;;5.40;99.90;;;4.78;91.15;100679.44;4119702;28;20022;-76
2021/11/26 06:36:27;;;;;;;6.40;3.50;;;5.40;99.90;;;4.80;90.66;100674.09;4118719;28;20101;-76
2021/11/26 06:38:28;;;;;;;7.25;3.38;;;5.40;99.90;;;4.66;91.69;100671.75;4134756;28;20027;-76
2021/11/26 06:40:29;;;;;;;6.80;3.50;;;5.40;99.90;;;4.50;91.69;100671.25;4119514;28;20062;-76
2021/11/26 06:42:31;;;;;;;5.75;3.47;;;5.40;99.90;;;4.71;91.26;100682.66;4117902;28;20097;-76
2021/11/26 06:44:32;;;;;;;5.75;3.67;;;5.40;99.90;;;4.74;91.05;100675.41;4119749;28;20030;-76
2021/11/26 06:46:33;;;;;;;5.43;4.30;;;5.40;99.90;;;4.79;91.22;100667.19;4119620;28;20085;-76
2021/11/26 06:48:35;;;;;;;10.20;4.70;;;5.40;99.90;;;4.82;91.07;100656.50;4118338;28;20122;-76
2021/11/26 06:50:38;;;;;;;4.47;3.40;;;5.40;99.90;;;4.92;90.74;100657.44;4133950;28;20034;-76
2021/11/26 06:52:39;;;;;;;8.98;3.50;;;5.50;99.90;;;4.94;91.24;100651.16;4105646;28;20031;-76
2021/11/26 06:54:40;;;;;;;10.77;4.07;;;5.50;99.90;;;4.73;91.30;100645.00;4119659;28;20034;-76
2021/11/26 06:56:41;;;;;;;7.63;3.60;;;5.50;99.90;;;4.69;92.43;100640.16;4119466;28;20038;-76
2021/11/26 06:58:42;;;;;;;7.38;3.33;;;5.50;99.90;;;4.87;91.75;100641.28;4117864;28;20118;-76
2021/11/26 07:00:43;;;;;;;6.47;3.00;;;5.50;99.90;;;5.03;91.23;100639.13;4118178;28;20038;-76
2021/11/26 07:02:44;;;;;;;7.07;3.78;;;5.60;99.90;;;5.05;91.83;100631.16;4134420;28;20023;-76
2021/11/26 07:04:46;;;;;;;6.95;3.40;;;5.70;99.90;;;4.96;92.24;100617.03;4114856;28;20450;-76
2021/11/26 07:06:47;;;;;;;6.07;3.20;;;5.60;99.90;;;5.12;92.29;100622.69;4119529;28;20375;-76
2021/11/26 07:08:48;;;;;;;6.53;2.88;;;5.60;99.90;;;5.12;90.99;100617.47;4119486;28;20085;-76
2021/11/26 07:10:49;;;;;;;6.43;3.67;;;5.70;99.90;;;5.05;91.88;100616.28;4102318;29;20071;-76
2021/11/26 07:12:50;;;;;;;7.07;3.33;;;5.70;99.90;;;4.96;92.59;100601.34;4118178;28;20030;-76
2021/11/26 07:14:51;;;;;;;6.72;3.13;;;5.60;99.90;;;4.96;93.89;100599.56;4118668;28;20134;-76
2021/11/26 07:16:52;;;;;;;6.22;3.78;;;5.60;99.90;;;5.10;92.50;100597.63;4102191;29;20055;-76
2021/11/26 07:18:53;;;;;;;8.55;3.33;;;5.60;99.90;;;5.06;93.31;100597.03;4119413;28;20391;-76
2021/11/26 07:20:54;;;;;;;4.95;3.03;;;5.60;99.90;;;4.99;93.23;100588.88;4101957;29;20035;-76
2021/11/26 07:22:55;;;;;;;8.52;4.80;;;5.60;99.90;;;5.01;93.61;100580.91;4102067;29;20035;-76
2021/11/26 07:24:56;;;;;;;10.52;3.38;;;5.50;99.90;;;4.78;94.09;100572.28;4119226;28;20023;-76
2021/11/26 07:26:57;;;;;;;7.80;4.10;;;5.50;99.90;;;4.65;95.16;100562.97;4119158;28;20086;-76
2021/11/26 07:28:58;;;;;;;5.82;4.53;;;5.50;99.90;;;4.57;95.70;100562.75;4085680;29;20444;-76
2021/11/26 07:30:59;;;;;;;7.63;3.50;;;5.40;99.90;;;4.74;95.79;100568.28;4119067;28;20027;-76
2021/11/26 07:33:00;;;;;;;4.68;3.75;;;5.40;99.90;;;4.60;95.43;100570.34;4119142;28;20030;-76
2021/11/26 07:35:00;;;;;;;5.78;4.00;;;5.30;99.90;;;4.77;95.20;100565.44;4102145;29;20042;-75
2021/11/26 07:37:01;;;;;;;8.20;4.75;;;5.40;99.90;;;4.79;94.96;100567.91;4102022;29;20054;-76
2021/11/26 07:39:03;;;;;;;7.25;4.47;;;5.30;99.90;;;4.79;95.43;100560.06;4119178;28;20041;-76
2021/11/26 07:41:04;;;;;;;9.07;4.30;;;5.40;99.90;;;4.84;94.96;100556.13;4101872;29;20038;-76
2021/11/26 07:43:06;;;;;;;6.13;3.88;;;5.30;99.90;;;4.91;94.64;100552.06;4103562;28;20035;-76
2021/11/26 07:45:09;;;;;;;9.38;5.55;;;5.40;99.90;;;4.91;94.65;100559.91;4104976;29;20034;-76
2021/11/26 07:47:15;;;;;;;7.78;4.20;;;5.40;99.90;;;4.93;93.68;100555.38;4105131;28;20097;-76
2021/11/26 07:49:16;;;;;;;6.50;4.22;;;5.40;99.90;;;4.80;93.90;100559.13;4105212;28;20027;-75
2021/11/26 07:51:17;;;;;;;6.38;4.75;;;5.40;99.90;;;4.79;94.43;100547.84;4105039;29;20035;-75
2021/11/26 07:53:18;;;;;;;10.00;6.03;;;5.40;99.90;;;4.71;94.64;100544.19;4104727;29;20105;-75
2021/11/26 07:55:19;;;;;;;17.02;8.70;;;5.40;99.90;;;4.71;94.92;100552.03;4122116;28;20042;-76
2021/11/26 07:57:20;;;;;;;13.00;8.50;;;5.40;99.90;;;4.92;93.21;100547.69;4105438;29;20041;-76
2021/11/26 07:59:23;;;;;;;10.55;6.30;;;4.90;99.90;;;5.10;91.80;100546.19;4105607;29;20113;-76
2021/11/26 08:01:25;;;;;;;8.25;5.28;;;5.50;99.90;;;5.07;91.82;100546.44;4089863;29;20156;-76
2021/11/26 08:03:26;;;;;;;7.32;6.00;;;5.50;99.90;;;5.07;91.85;100535.97;4089730;29;20118;-76
2021/11/26 08:05:31;;;;;;;8.20;5.63;;;5.50;99.90;;;4.73;92.59;100524.81;4122815;28;20018;-76
2021/11/26 08:07:32;;;;;;;12.98;6.47;;;5.50;99.90;;;4.93;91.57;100528.41;4122843;28;20037;-76
2021/11/26 08:09:33;;;;;;;11.10;6.70;;;5.50;99.90;;;4.91;92.21;100530.31;4122778;28;20034;-76
2021/11/26 08:11:34;;;;;;;10.55;5.70;;;5.50;99.90;;;4.70;93.23;100522.44;4105270;29;20098;-76
2021/11/26 08:13:35;;;;;;;14.43;5.88;;;5.50;99.90;;;4.80;93.83;100518.16;4108737;28;20082;-76
2021/11/26 08:15:37;;;;;;;12.77;5.47;;;5.40;99.90;;;4.94;92.91;100511.78;4132924;28;20066;-75
2021/11/26 08:17:38;;;;;;;6.28;4.68;;;5.70;99.90;;;4.90;93.04;100507.75;4122519;28;20105;-76
2021/11/26 08:19:39;;;;;;;7.80;4.63;;;5.40;99.90;;;4.94;92.90;100511.78;4121460;28;20078;-76
2021/11/26 08:21:41;;;;;;;5.15;3.90;;;5.50;99.90;;;4.87;94.58;100492.31;4121001;28;20038;-76
2021/11/26 08:23:41;;;;;;;10.25;5.88;;;5.50;99.90;;;4.76;95.26;100487.16;4137306;28;20030;-76
2021/11/26 08:25:42;;;;;;;11.93;5.50;;;5.50;99.90;;;4.89;94.53;100480.81;4121139;28;20145;-76
2021/11/26 08:27:44;;;;;;;8.98;5.72;;;5.50;99.90;;;4.99;93.84;100476.47;4135686;28;20110;-74
2021/11/26 08:29:44;;;;;;;9.25;5.30;;;5.50;99.90;;;4.98;94.32;100464.38;4120140;28;20026;-74
2021/11/26 08:31:45;;;;;;;7.78;4.75;;;5.60;99.90;;;4.81;95.27;100470.13;4121315;28;20030;-73
2021/11/26 08:33:46;;;;;;;6.03;4.28;;;5.60;99.90;;;4.58;97.62;100472.97;4120867;28;20442;-74
2021/11/26 08:35:48;;;;;;;8.18;4.60;;;5.50;99.90;;;4.80;97.30;100476.34;4121394;28;20031;-74